createdAt,value
2018-05-11T00:02:25.419Z,98.16
2018-05-11T00:04:53.670Z,97.32
2018-05-11T00:07:22.155Z,97.74
2018-05-11T00:09:51.002Z,98.39
2018-05-11T00:12:19.322Z,100.00
2018-05-11T00:14:47.561Z,99.09
2018-05-11T00:17:16.074Z,99.81
2018-05-11T00:19:44.334Z,98.97
2018-05-11T00:22:12.634Z,98.00
2018-05-11T00:24:40.902Z,98.22
2018-05-11T00:27:09.210Z,98.43
2018-05-11T00:29:37.729Z,97.73
2018-05-11T00:32:06.026Z,97.71
2018-05-11T00:34:34.300Z,98.41
2018-05-11T00:37:02.698Z,97.75
2018-05-11T00:39:30.967Z,98.83
2018-05-11T00:41:59.463Z,98.24
2018-05-11T00:44:27.709Z,99.26
2018-05-11T00:46:56.294Z,97.55
2018-05-11T00:49:24.677Z,98.45
2018-05-11T00:51:53.020Z,96.95
2018-05-11T00:54:21.277Z,96.83
2018-05-11T00:56:49.594Z,97.55
2018-05-11T00:59:17.994Z,99.13
2018-05-11T01:01:46.282Z,99.12
2018-05-11T01:04:14.527Z,99.54
2018-05-11T01:06:42.834Z,99.36
2018-05-11T01:09:11.175Z,99.54
2018-05-11T01:11:39.850Z,99.42
2018-05-11T01:14:08.298Z,100.00
2018-05-11T01:16:36.764Z,100.00
2018-05-11T01:19:05.015Z,99.26
2018-05-11T01:21:33.290Z,98.63
2018-05-11T01:24:01.563Z,98.20
2018-05-11T01:26:29.861Z,97.86
2018-05-11T01:28:58.306Z,99.18
2018-05-11T01:31:26.587Z,98.73
2018-05-11T01:33:54.822Z,100.00
2018-05-11T01:36:23.179Z,100.00
2018-05-11T01:38:51.605Z,99.22
2018-05-11T01:41:19.883Z,99.72
2018-05-11T01:43:48.585Z,99.78
2018-05-11T01:46:16.898Z,98.82
2018-05-11T01:48:45.155Z,97.96
2018-05-11T01:51:13.652Z,98.92
2018-05-11T01:53:41.897Z,99.23
2018-05-11T01:56:10.181Z,99.15
2018-05-11T01:58:38.446Z,99.84
2018-05-11T02:01:06.759Z,98.77
2018-05-11T02:03:35.037Z,98.66
2018-05-11T02:06:03.329Z,98.51
2018-05-11T02:08:31.614Z,98.23
2018-05-11T02:10:59.878Z,97.67
2018-05-11T02:13:28.518Z,98.26
2018-05-11T02:15:56.826Z,97.43
2018-05-11T02:18:25.078Z,97.88
2018-05-11T02:20:53.357Z,97.66
2018-05-11T02:23:21.628Z,98.27
2018-05-11T02:25:49.922Z,97.88
2018-05-11T02:28:18.218Z,97.76
2018-05-11T02:30:46.506Z,97.46
2018-05-11T02:33:14.938Z,98.41
2018-05-11T02:35:43.214Z,97.13
2018-05-11T02:38:11.490Z,97.51
2018-05-11T02:40:39.766Z,98.51
2018-05-11T02:43:08.042Z,99.29
2018-05-11T02:45:36.315Z,98.30
2018-05-11T02:48:04.607Z,97.55
2018-05-11T02:50:32.897Z,96.97
2018-05-11T02:53:01.361Z,96.06
2018-05-11T02:55:29.651Z,95.98
2018-05-11T02:57:57.910Z,95.13
2018-05-11T03:00:26.207Z,95.98
2018-05-11T03:02:54.847Z,95.81
2018-05-11T03:05:23.115Z,95.67
2018-05-11T03:07:51.399Z,96.49
2018-05-11T03:10:19.677Z,96.84
2018-05-11T03:12:47.967Z,95.88
2018-05-11T03:15:16.258Z,97.42
2018-05-11T03:17:44.721Z,98.52
2018-05-11T03:20:13.026Z,97.18
2018-05-11T03:22:41.259Z,95.59
2018-05-11T03:25:09.579Z,96.02
2018-05-11T03:27:37.841Z,95.80
2018-05-11T03:30:06.135Z,95.54
2018-05-11T03:32:34.394Z,95.13
2018-05-11T03:35:02.657Z,96.86
2018-05-11T03:37:30.958Z,96.53
2018-05-11T03:39:59.201Z,97.11
2018-05-11T03:42:27.715Z,96.62
2018-05-11T03:44:55.954Z,96.66
2018-05-11T03:47:24.269Z,96.87
2018-05-11T03:49:52.514Z,97.31
2018-05-11T03:52:20.817Z,96.09
2018-05-11T03:54:49.046Z,96.35
2018-05-11T03:57:17.363Z,97.00
2018-05-11T03:59:45.600Z,96.67
2018-05-11T04:05:21.238Z,96.54
2018-05-11T04:08:53.339Z,96.46
2018-05-11T04:11:21.830Z,97.18
2018-05-11T04:13:50.285Z,97.26
2018-05-11T04:16:18.854Z,97.60
2018-05-11T04:18:47.468Z,97.42
2018-05-11T04:22:19.062Z,97.66
2018-05-11T04:24:47.774Z,96.08
2018-05-11T04:27:16.222Z,95.39
2018-05-11T04:29:44.790Z,96.07
2018-05-11T04:32:13.414Z,97.13
2018-05-11T04:34:42.070Z,98.17
2018-05-11T04:37:10.578Z,98.75
2018-05-11T04:39:39.021Z,96.95
2018-05-11T04:42:07.462Z,97.34
2018-05-11T04:44:35.978Z,96.30
2018-05-11T04:47:04.477Z,96.15
2018-05-11T04:49:33.139Z,96.43
2018-05-11T04:52:01.624Z,96.01
2018-05-11T04:54:30.092Z,95.98
2018-05-11T04:56:58.802Z,96.37
2018-05-11T04:59:27.246Z,96.35
2018-05-11T05:01:55.758Z,96.64
2018-05-11T05:04:24.215Z,96.79
2018-05-11T05:06:52.674Z,95.54
2018-05-11T05:09:21.207Z,95.42
2018-05-11T05:11:49.692Z,96.79
2018-05-11T05:14:18.143Z,96.59
2018-05-11T05:16:46.654Z,94.95
2018-05-11T05:19:15.211Z,94.07
2018-05-11T05:21:43.709Z,95.69
2018-05-11T05:24:12.263Z,94.92
2018-05-11T05:26:40.990Z,94.82
2018-05-11T05:29:09.406Z,96.61
2018-05-11T05:31:38.158Z,94.39
2018-05-11T05:34:06.646Z,94.84
2018-05-11T05:36:35.110Z,94.64
2018-05-11T05:39:03.816Z,95.32
2018-05-11T05:41:32.291Z,94.84
2018-05-11T05:44:01.148Z,95.02
2018-05-11T05:46:29.656Z,96.48
2018-05-11T05:48:58.323Z,96.43
2018-05-11T05:51:26.854Z,94.64
2018-05-11T05:53:55.471Z,95.39
2018-05-11T05:56:24.051Z,93.76
2018-05-11T05:58:52.631Z,93.53
2018-05-11T06:01:21.166Z,94.55
2018-05-11T06:03:49.890Z,94.43
2018-05-11T06:06:18.579Z,94.54
2018-05-11T06:08:47.175Z,95.14
2018-05-11T06:11:16.919Z,93.44
2018-05-11T06:13:45.642Z,93.93
2018-05-11T06:16:14.084Z,92.79
2018-05-11T06:18:42.495Z,92.53
2018-05-11T06:21:11.105Z,91.38
2018-05-11T06:23:39.676Z,92.27
2018-05-11T06:26:08.426Z,92.32
2018-05-11T06:28:36.919Z,91.89
2018-05-11T06:31:05.819Z,91.78
2018-05-11T06:33:34.967Z,90.60
2018-05-11T06:36:03.576Z,91.61
2018-05-11T06:38:32.054Z,91.65
2018-05-11T06:41:00.531Z,90.48
2018-05-11T06:43:28.998Z,91.35
2018-05-11T06:45:57.581Z,91.96
2018-05-11T06:48:26.218Z,93.26
2018-05-11T06:50:54.939Z,92.04
2018-05-11T06:53:23.521Z,91.27
2018-05-11T06:55:52.019Z,91.50
2018-05-11T06:58:20.894Z,91.71
2018-05-11T07:00:49.914Z,91.51
2018-05-11T07:03:18.430Z,91.33
2018-05-11T07:05:46.998Z,92.34
2018-05-11T07:08:15.491Z,91.68
2018-05-11T07:10:44.355Z,91.66
2018-05-11T07:13:12.852Z,92.01
2018-05-11T07:15:41.954Z,92.03
2018-05-11T07:18:10.393Z,91.28
2018-05-11T07:20:38.907Z,91.94
2018-05-11T07:23:07.551Z,91.03
2018-05-11T07:25:36.316Z,91.24
2018-05-11T07:28:05.119Z,91.83
2018-05-11T07:30:33.663Z,93.46
2018-05-11T07:33:02.103Z,92.39
2018-05-11T07:35:30.823Z,90.92
2018-05-11T07:37:59.658Z,90.50
2018-05-11T07:40:28.384Z,91.72
2018-05-11T07:42:56.798Z,91.13
2018-05-11T07:45:25.281Z,90.65
2018-05-11T07:47:53.739Z,92.34
2018-05-11T07:50:22.346Z,92.29
2018-05-11T07:52:50.871Z,91.92
2018-05-11T07:55:19.703Z,91.32
2018-05-11T07:57:48.346Z,92.71
2018-05-11T08:00:16.895Z,92.56
2018-05-11T08:02:45.801Z,90.30
2018-05-11T08:05:14.415Z,90.09
2018-05-11T08:07:42.883Z,88.32
2018-05-11T08:10:11.826Z,88.13
2018-05-11T08:12:40.469Z,91.40
2018-05-11T08:15:08.946Z,91.63
2018-05-11T08:17:37.443Z,90.55
2018-05-11T08:20:06.316Z,91.16
2018-05-11T08:22:35.337Z,88.88
2018-05-11T08:25:04.139Z,89.67
2018-05-11T08:27:32.886Z,88.50
2018-05-11T08:30:01.469Z,87.90
2018-05-11T08:32:29.970Z,85.89
2018-05-11T08:34:58.717Z,86.51
2018-05-11T08:37:27.542Z,88.39
2018-05-11T08:39:56.106Z,86.47
2018-05-11T08:42:24.704Z,87.66
2018-05-11T08:44:53.354Z,87.40
2018-05-11T08:47:21.975Z,86.96
2018-05-11T08:49:50.546Z,88.37
2018-05-11T08:52:19.246Z,86.27
2018-05-11T08:54:47.678Z,89.41
2018-05-11T08:57:16.179Z,88.34
2018-05-11T08:59:44.665Z,87.97
2018-05-11T09:02:13.351Z,86.74
2018-05-11T09:04:42.371Z,85.88
2018-05-11T09:07:11.079Z,85.53
2018-05-11T09:09:39.657Z,85.58
2018-05-11T09:12:08.506Z,86.58
2018-05-11T09:14:37.423Z,86.58
2018-05-11T09:17:07.419Z,87.46
2018-05-11T09:19:36.194Z,85.27
2018-05-11T09:22:04.999Z,85.53
2018-05-11T09:24:33.799Z,85.13
2018-05-11T09:27:02.318Z,86.98
2018-05-11T09:29:31.195Z,86.55
2018-05-11T09:32:00.091Z,84.20
2018-05-11T09:34:28.739Z,86.20
2018-05-11T09:36:57.429Z,84.78
2018-05-11T09:39:25.981Z,83.28
2018-05-11T09:41:54.408Z,81.50
2018-05-11T09:44:23.287Z,81.32
2018-05-11T09:46:51.994Z,79.76
2018-05-11T09:49:20.687Z,80.97
2018-05-11T09:51:49.567Z,81.78
2018-05-11T09:54:18.434Z,82.56
2018-05-11T09:56:46.923Z,81.84
2018-05-11T09:59:15.376Z,82.98
2018-05-11T10:01:43.985Z,83.04
2018-05-11T10:04:12.827Z,81.68
2018-05-11T10:06:41.954Z,79.99
2018-05-11T10:09:10.551Z,76.40
2018-05-11T10:11:39.095Z,77.58
2018-05-11T10:14:08.074Z,78.65
2018-05-11T10:16:36.574Z,77.54
2018-05-11T10:19:05.346Z,79.67
2018-05-11T10:21:33.998Z,80.54
2018-05-11T10:24:02.522Z,80.46
2018-05-11T10:26:31.186Z,78.45
2018-05-11T10:28:59.829Z,79.96
2018-05-11T10:31:28.400Z,79.28
2018-05-11T10:33:57.049Z,78.22
2018-05-11T10:36:25.584Z,80.90
2018-05-11T10:38:54.180Z,78.66
2018-05-11T10:41:23.706Z,77.16
2018-05-11T10:43:52.362Z,78.11
2018-05-11T10:46:21.695Z,77.71
2018-05-11T10:48:50.472Z,78.43
2018-05-11T10:51:19.527Z,77.22
2018-05-11T10:53:48.634Z,77.33
2018-05-11T10:56:18.093Z,78.14
2018-05-11T10:58:47.739Z,77.65
2018-05-11T11:01:19.402Z,79.83
2018-05-11T11:03:48.548Z,78.26
2018-05-11T11:06:17.657Z,80.49
2018-05-11T11:08:46.636Z,78.03
2018-05-11T11:11:16.015Z,78.41
2018-05-11T11:13:44.576Z,75.75
2018-05-11T11:16:13.808Z,76.74
2018-05-11T11:18:42.811Z,76.53
2018-05-11T11:21:11.902Z,76.88
2018-05-11T11:26:15.387Z,76.96
2018-05-11T11:28:44.310Z,76.98
2018-05-11T11:31:14.284Z,76.17
2018-05-11T11:33:43.127Z,75.79
2018-05-11T11:36:11.808Z,75.75
2018-05-11T11:38:42.563Z,78.58
2018-05-11T11:41:11.487Z,77.50
2018-05-11T11:43:39.964Z,77.39
2018-05-11T11:46:08.815Z,76.31
2018-05-11T11:48:40.840Z,75.21
2018-05-11T11:51:12.046Z,75.43
2018-05-11T11:53:40.641Z,75.00
2018-05-11T11:56:09.936Z,75.27
2018-05-11T11:58:39.924Z,76.67
2018-05-11T12:01:09.907Z,79.06
2018-05-11T12:03:39.183Z,75.78
2018-05-11T12:06:08.984Z,78.56
2018-05-11T12:08:41.407Z,79.81
2018-05-11T12:11:09.995Z,80.51
2018-05-11T12:13:38.926Z,81.22
2018-05-11T12:16:07.560Z,79.03
2018-05-11T12:18:36.207Z,80.92
2018-05-11T12:21:04.947Z,79.59
2018-05-11T12:23:33.522Z,78.25
2018-05-11T12:26:02.120Z,79.03
2018-05-11T12:28:30.767Z,75.81
2018-05-11T12:30:59.400Z,77.27
2018-05-11T12:33:27.912Z,76.01
2018-05-11T12:35:57.547Z,75.77
2018-05-11T12:38:26.849Z,75.42
2018-05-11T12:40:56.973Z,74.93
2018-05-11T12:43:25.720Z,75.03
2018-05-11T12:45:54.455Z,75.27
2018-05-11T12:48:23.131Z,76.30
2018-05-11T12:50:51.851Z,76.92
2018-05-11T12:53:20.414Z,78.05
2018-05-11T12:55:48.970Z,76.82
2018-05-11T12:58:18.751Z,78.05
2018-05-11T13:00:50.127Z,79.27
2018-05-11T13:03:19.359Z,79.94
2018-05-11T13:05:49.316Z,82.09
2018-05-11T13:08:19.020Z,79.20
2018-05-11T13:10:47.524Z,78.47
2018-05-11T13:13:16.163Z,80.65
2018-05-11T13:15:46.010Z,80.59
2018-05-11T13:18:14.622Z,76.22
2018-05-11T13:20:43.344Z,76.32
2018-05-11T13:23:11.910Z,76.71
2018-05-11T13:25:41.627Z,76.64
2018-05-11T13:28:11.144Z,78.30
2018-05-11T13:30:39.793Z,81.47
2018-05-11T13:33:08.340Z,79.58
2018-05-11T13:35:36.954Z,76.79
2018-05-11T13:38:05.510Z,76.28
2018-05-11T13:40:34.807Z,79.65
2018-05-11T13:43:03.634Z,76.62
2018-05-11T13:45:32.347Z,78.00
2018-05-11T13:48:01.196Z,78.20
2018-05-11T13:50:29.720Z,76.35
2018-05-11T13:52:58.339Z,74.85
2018-05-11T13:55:26.930Z,75.36
2018-05-11T13:57:55.551Z,76.13
2018-05-11T14:00:24.511Z,74.09
2018-05-11T14:02:53.482Z,75.40
2018-05-11T14:05:23.217Z,77.94
2018-05-11T14:07:51.733Z,74.18
2018-05-11T14:10:20.339Z,76.65
2018-05-11T14:12:50.853Z,74.55
2018-05-11T14:15:20.684Z,75.60
2018-05-11T14:17:49.343Z,76.75
2018-05-11T14:20:18.080Z,78.71
2018-05-11T14:22:46.876Z,77.52
2018-05-11T14:25:15.491Z,76.56
2018-05-11T14:27:44.038Z,76.03
2018-05-11T14:30:14.534Z,74.07
2018-05-11T14:35:19.371Z,74.97
2018-05-11T14:37:48.542Z,73.93
2018-05-11T14:40:18.394Z,74.50
2018-05-11T14:42:47.491Z,78.24
2018-05-11T14:45:16.313Z,76.51
2018-05-11T14:47:44.829Z,74.26
2018-05-11T14:50:13.554Z,75.52
2018-05-11T14:52:43.188Z,75.13
2018-05-11T14:55:12.924Z,74.13
2018-05-11T14:57:42.381Z,73.32
2018-05-11T15:00:12.096Z,74.15
2018-05-11T15:02:41.717Z,74.75
2018-05-11T15:05:10.709Z,74.03
2018-05-11T15:07:39.230Z,73.17
2018-05-11T15:10:07.977Z,75.03
2018-05-11T15:12:36.639Z,73.21
2018-05-11T15:15:06.016Z,74.40
2018-05-11T15:17:34.551Z,76.66
2018-05-11T15:20:03.338Z,74.79
2018-05-11T15:22:32.159Z,74.18
2018-05-11T15:25:00.847Z,75.15
2018-05-11T15:27:31.120Z,74.45
2018-05-11T15:29:59.587Z,77.61
2018-05-11T15:32:29.189Z,78.40
2018-05-11T15:34:58.101Z,77.77
2018-05-11T15:37:27.030Z,78.53
2018-05-11T15:39:55.832Z,76.19
2018-05-11T15:42:26.260Z,77.50
2018-05-11T15:44:56.497Z,77.05
2018-05-11T15:47:25.315Z,77.04
2018-05-11T15:49:53.912Z,80.28
2018-05-11T15:52:22.838Z,79.77
2018-05-11T15:54:51.291Z,79.07
2018-05-11T15:57:19.707Z,78.29
2018-05-11T15:59:48.316Z,78.42
2018-05-11T16:02:17.384Z,80.20
2018-05-11T16:04:46.948Z,80.23
2018-05-11T16:07:15.940Z,79.11
2018-05-11T16:09:45.625Z,79.61
2018-05-11T16:12:15.219Z,80.20
2018-05-11T16:14:43.766Z,78.28
2018-05-11T16:17:12.515Z,78.97
2018-05-11T16:19:41.036Z,79.77
2018-05-11T16:22:09.899Z,80.57
2018-05-11T16:24:38.552Z,79.90
2018-05-11T16:27:07.088Z,79.94
2018-05-11T16:29:35.874Z,81.43
2018-05-11T16:32:04.695Z,81.28
2018-05-11T16:34:33.169Z,82.19
2018-05-11T16:37:01.963Z,83.32
2018-05-11T16:39:30.963Z,80.80
2018-05-11T16:42:00.474Z,79.59
2018-05-11T16:44:30.300Z,81.10
2018-05-11T16:47:00.088Z,81.67
2018-05-11T16:49:29.297Z,80.69
2018-05-11T16:51:58.063Z,80.02
2018-05-11T16:54:27.572Z,81.19
2018-05-11T16:56:59.022Z,81.42
2018-05-11T16:59:27.700Z,82.27
2018-05-11T17:01:56.645Z,83.65
2018-05-11T17:04:31.818Z,81.82
2018-05-11T17:07:00.339Z,82.98
2018-05-11T17:09:34.259Z,82.53
2018-05-11T17:12:04.746Z,83.85
2018-05-11T17:14:33.812Z,83.31
2018-05-11T17:17:02.759Z,82.95
2018-05-11T17:19:31.829Z,81.97
2018-05-11T17:22:00.998Z,83.87
2018-05-11T17:24:31.091Z,81.88
2018-05-11T17:27:00.652Z,82.29
2018-05-11T17:29:30.126Z,82.08
2018-05-11T17:31:58.943Z,81.16
2018-05-11T17:34:28.848Z,83.02
2018-05-11T17:36:57.748Z,81.89
2018-05-11T17:39:27.358Z,82.57
2018-05-11T17:41:56.486Z,82.06
2018-05-11T17:44:25.083Z,81.69
2018-05-11T17:46:54.101Z,83.07
2018-05-11T17:49:23.616Z,81.66
2018-05-11T17:51:52.294Z,80.16
2018-05-11T17:54:20.760Z,79.89
2018-05-11T17:56:50.336Z,80.25
2018-05-11T17:59:18.911Z,81.39
2018-05-11T18:01:52.123Z,80.74
2018-05-11T18:04:22.160Z,80.08
2018-05-11T18:06:51.155Z,80.98
2018-05-11T18:09:19.775Z,80.89
2018-05-11T18:11:48.466Z,80.45
2018-05-11T18:14:17.115Z,80.30
2018-05-11T18:16:45.658Z,83.70
2018-05-11T18:19:15.376Z,82.23
2018-05-11T18:21:45.112Z,83.12
2018-05-11T18:24:14.502Z,83.63
2018-05-11T18:26:43.420Z,84.67
2018-05-11T18:29:11.970Z,83.76
2018-05-11T18:31:41.183Z,84.36
2018-05-11T18:34:09.946Z,84.87
2018-05-11T18:36:38.981Z,86.17
2018-05-11T18:39:08.158Z,85.82
2018-05-11T18:41:36.671Z,86.33
2018-05-11T18:44:05.291Z,86.86
2018-05-11T18:46:35.950Z,87.53
2018-05-11T18:49:05.230Z,87.56
2018-05-11T18:51:34.985Z,88.49
2018-05-11T18:54:04.851Z,88.90
2018-05-11T18:56:33.832Z,89.97
2018-05-11T18:59:02.443Z,90.62
2018-05-11T19:01:31.584Z,89.76
2018-05-11T19:04:00.847Z,91.98
2018-05-11T19:06:30.165Z,91.86
2018-05-11T19:08:59.602Z,92.48
2018-05-11T19:11:28.941Z,91.97
2018-05-11T19:13:57.748Z,91.52
2018-05-11T19:16:26.809Z,92.25
2018-05-11T19:18:56.330Z,92.95
2018-05-11T19:21:26.732Z,93.18
2018-05-11T19:23:56.117Z,94.49
2018-05-11T19:26:24.887Z,93.22
2018-05-11T19:28:53.406Z,93.75
2018-05-11T19:31:23.387Z,95.62
2018-05-11T19:33:53.307Z,96.12
2018-05-11T19:36:22.158Z,96.01
2018-05-11T19:38:55.166Z,96.04
2018-05-11T19:41:26.294Z,96.09
2018-05-11T19:43:57.581Z,95.95
2018-05-11T19:46:26.876Z,97.19
2018-05-11T19:48:56.341Z,97.08
2018-05-11T19:51:26.282Z,97.00
2018-05-11T19:53:54.734Z,97.36
2018-05-11T19:56:23.258Z,97.79
2018-05-11T19:58:52.875Z,97.47
2018-05-11T20:01:22.739Z,97.72
2018-05-11T20:03:56.363Z,98.35
2018-05-11T20:06:25.772Z,98.74
2018-05-11T20:08:54.838Z,99.28
2018-05-11T20:11:24.053Z,98.74
2018-05-11T20:13:52.674Z,98.81
2018-05-11T20:16:22.656Z,98.24
2018-05-11T20:18:52.795Z,98.55
2018-05-11T20:21:22.231Z,98.66
2018-05-11T20:23:51.721Z,99.19
2018-05-11T20:26:22.524Z,99.84
2018-05-11T20:28:52.218Z,100.00
2018-05-11T20:31:20.988Z,100.00
2018-05-11T20:33:49.502Z,100.00
2018-05-11T20:36:20.170Z,100.00
2018-05-11T20:38:49.600Z,99.31
2018-05-11T20:41:18.781Z,99.13
2018-05-11T20:43:47.593Z,100.00
2018-05-11T20:46:16.687Z,100.00
2018-05-11T20:48:46.628Z,100.00
2018-05-11T20:51:15.674Z,99.91
2018-05-11T20:53:44.324Z,100.00
2018-05-11T20:56:13.785Z,100.00
2018-05-11T20:58:42.764Z,100.00
2018-05-11T21:01:11.207Z,99.64
2018-05-11T21:03:39.721Z,100.00
2018-05-11T21:06:09.339Z,100.00
2018-05-11T21:08:38.376Z,100.00
2018-05-11T21:11:06.856Z,100.00
2018-05-11T21:13:36.147Z,100.00
2018-05-11T21:16:05.243Z,100.00
2018-05-11T21:18:34.521Z,100.00
2018-05-11T21:21:03.437Z,100.00
2018-05-11T21:23:32.078Z,100.00
2018-05-11T21:26:01.289Z,100.00
2018-05-11T21:28:29.819Z,100.00
2018-05-11T21:30:58.323Z,100.00
2018-05-11T21:33:27.541Z,100.00
2018-05-11T21:35:57.145Z,100.00
2018-05-11T21:38:25.672Z,100.00
2018-05-11T21:40:54.964Z,100.00
2018-05-11T21:43:23.359Z,100.00
2018-05-11T21:46:50.999Z,100.00
2018-05-11T21:49:19.597Z,100.00
2018-05-11T21:51:48.407Z,100.00
2018-05-11T21:54:17.067Z,100.00
2018-05-11T21:56:46.447Z,100.00
2018-05-11T21:59:17.130Z,100.00
2018-05-11T22:01:46.445Z,100.00
2018-05-11T22:04:15.166Z,100.00
2018-05-11T22:06:44.995Z,100.00
2018-05-11T22:09:13.550Z,100.00
2018-05-11T22:11:42.489Z,100.00
2018-05-11T22:14:12.713Z,100.00
2018-05-11T22:16:42.049Z,100.00
2018-05-11T22:19:10.900Z,100.00
2018-05-11T22:21:40.899Z,100.00
2018-05-11T22:24:09.794Z,100.00
2018-05-11T22:26:38.787Z,100.00
2018-05-11T22:29:07.248Z,100.00
2018-05-11T22:31:36.455Z,100.00
2018-05-11T22:34:05.074Z,100.00
2018-05-11T22:36:35.020Z,100.00
2018-05-11T22:39:05.743Z,100.00
2018-05-11T22:41:35.247Z,100.00
2018-05-11T22:44:04.008Z,100.00
2018-05-11T22:46:32.806Z,100.00
2018-05-11T22:49:01.288Z,100.00
2018-05-11T22:51:30.188Z,100.00
2018-05-11T22:53:59.079Z,100.00
2018-05-11T22:56:27.973Z,100.00
2018-05-11T22:58:57.141Z,100.00
2018-05-11T23:01:26.173Z,100.00
2018-05-11T23:03:55.125Z,100.00
2018-05-11T23:06:24.147Z,100.00
2018-05-11T23:08:55.630Z,100.00
2018-05-11T23:11:24.493Z,100.00
2018-05-11T23:13:55.878Z,100.00
2018-05-11T23:16:26.187Z,100.00
2018-05-11T23:18:55.635Z,100.00
2018-05-11T23:21:24.196Z,100.00
2018-05-11T23:23:52.977Z,100.00
2018-05-11T23:26:21.526Z,100.00
2018-05-11T23:28:50.357Z,100.00
2018-05-11T23:31:18.955Z,100.00
2018-05-11T23:33:47.395Z,100.00
2018-05-11T23:36:16.081Z,100.00
2018-05-11T23:38:45.047Z,100.00
2018-05-11T23:41:13.576Z,100.00
2018-05-11T23:43:43.218Z,100.00
2018-05-11T23:46:12.240Z,100.00
2018-05-11T23:48:41.319Z,100.00
2018-05-11T23:51:10.496Z,100.00
2018-05-11T23:53:41.268Z,100.00
2018-05-11T23:56:10.755Z,100.00
2018-05-11T23:58:39.432Z,100.00
